Time;durP1;ratioP1;P1;durP2;ratioP2;P2;SDS_P1;SDS_P2;PMS_P1;PMS_P2;Temp;Humidity;BMP_temperature;BMP_pressure;BME280_temperature;BME280_humidity;BME280_pressure;Samples;Min_cycle;Max_cycle;Signal;HPM_P1;HPM_P2
2021/01/15 00:01:18;;;;;;;12.53;7.70;;;0.30;92.20;;;;;;4774256;29;20042;-78
2021/01/15 00:03:45;;;;;;;14.13;8.47;;;0.30;92.10;;;;;;4798229;29;20054;-79
2021/01/15 00:06:19;;;;;;;11.43;7.77;;;0.30;92.00;;;;;;4783177;29;20061;-83
2021/01/15 00:08:46;;;;;;;14.17;8.07;;;0.40;92.00;;;;;;4768088;29;20403;-83
2021/01/15 00:11:19;;;;;;;11.13;8.00;;;0.40;91.90;;;;;;4762965;29;20399;-82
2021/01/15 00:13:46;;;;;;;13.30;8.00;;;0.40;91.90;;;;;;4775094;29;20511;-82
2021/01/15 00:16:20;;;;;;;13.60;8.20;;;0.50;91.70;;;;;;4782953;29;20042;-82
2021/01/15 00:18:50;;;;;;;11.30;7.80;;;0.60;91.40;;;;;;4759652;29;20659;-83
2021/01/15 00:21:24;;;;;;;12.90;7.73;;;0.60;90.90;;;;;;4780996;29;20046;-81
2021/01/15 00:23:52;;;;;;;12.43;7.73;;;0.70;90.70;;;;;;4812129;29;20054;-83
2021/01/15 00:26:21;;;;;;;10.80;7.33;;;0.70;90.80;;;;;;4767576;29;20035;-83
2021/01/15 00:28:49;;;;;;;11.20;6.90;;;0.80;90.50;;;;;;4760191;29;20058;-79
2021/01/15 00:31:16;;;;;;;11.30;7.43;;;0.80;90.40;;;;;;4796815;29;20071;-79
2021/01/15 00:33:42;;;;;;;13.57;8.03;;;0.90;90.20;;;;;;4782773;29;20053;-82
2021/01/15 00:36:10;;;;;;;10.67;6.97;;;0.90;90.10;;;;;;4766903;29;20050;-82
2021/01/15 00:38:37;;;;;;;11.07;6.93;;;0.90;89.80;;;;;;4782053;29;20039;-79
2021/01/15 00:41:08;;;;;;;9.07;6.80;;;1.00;89.70;;;;;;4782087;29;20101;-78
2021/01/15 00:43:35;;;;;;;10.73;6.60;;;1.00;89.70;;;;;;4782652;29;20045;-83
2021/01/15 00:46:07;;;;;;;10.27;7.27;;;1.10;88.90;;;;;;4782640;29;20042;-81
2021/01/15 00:48:39;;;;;;;9.38;6.57;;;1.10;88.60;;;;;;4793044;29;20673;-80
2021/01/15 00:51:10;;;;;;;11.27;6.27;;;1.10;88.50;;;;;;4777828;29;20049;-80
2021/01/15 00:53:37;;;;;;;11.00;6.33;;;1.10;88.20;;;;;;4766686;29;20047;-83
2021/01/15 00:56:04;;;;;;;8.90;6.13;;;1.20;87.80;;;;;;4796538;29;20853;-82
2021/01/15 00:58:31;;;;;;;10.97;6.40;;;1.20;87.90;;;;;;4782405;29;20039;-82
2021/01/15 01:00:57;;;;;;;11.50;7.77;;;1.20;87.80;;;;;;4766481;29;20533;-81
2021/01/15 01:03:37;;;;;;;9.40;6.60;;;1.20;88.30;;;;;;4772461;29;20047;-81
2021/01/15 01:06:12;;;;;;;10.97;6.47;;;1.20;87.60;;;;;;4750758;29;20043;-80
2021/01/15 01:08:39;;;;;;;8.13;6.23;;;1.20;87.90;;;;;;4781536;29;20047;-82
2021/01/15 01:11:18;;;;;;;10.67;6.03;;;1.20;87.90;;;;;;4796520;29;20051;-79
2021/01/15 01:13:55;;;;;;;8.73;5.90;;;1.30;87.80;;;;;;4773688;29;20067;-81
2021/01/15 01:16:24;;;;;;;12.87;7.00;;;1.30;88.20;;;;;;4771619;29;20046;-82
2021/01/15 01:18:52;;;;;;;9.33;6.37;;;1.30;88.10;;;;;;4777938;29;20043;-82
2021/01/15 01:21:19;;;;;;;8.90;6.20;;;1.30;88.60;;;;;;4775117;29;20039;-81
2021/01/15 01:23:46;;;;;;;12.80;7.73;;;1.40;88.10;;;;;;4793966;29;20054;-79
2021/01/15 01:26:13;;;;;;;9.80;7.03;;;1.30;88.10;;;;;;4792359;29;20046;-82
2021/01/15 01:28:42;;;;;;;10.50;6.20;;;1.30;88.20;;;;;;4777779;29;20049;-81
2021/01/15 01:31:13;;;;;;;10.50;6.60;;;1.30;88.40;;;;;;4777439;29;20127;-84
2021/01/15 01:33:40;;;;;;;11.30;7.17;;;1.40;89.40;;;;;;4793124;29;20146;-83
2021/01/15 01:36:08;;;;;;;12.97;8.33;;;1.30;88.80;;;;;;4796391;29;20061;-82
2021/01/15 01:38:35;;;;;;;10.50;7.67;;;1.30;88.90;;;;;;4769488;29;20248;-84
2021/01/15 01:41:01;;;;;;;12.60;8.20;;;1.30;89.00;;;;;;4779756;29;20046;-81
2021/01/15 01:43:28;;;;;;;11.80;8.13;;;1.30;88.90;;;;;;4752508;29;20058;-81
2021/01/15 01:45:55;;;;;;;12.03;7.87;;;1.30;89.20;;;;;;4781235;29;20054;-80
2021/01/15 01:48:22;;;;;;;11.13;7.27;;;1.30;89.40;;;;;;4780819;29;20035;-81
2021/01/15 01:50:51;;;;;;;12.13;8.13;;;1.30;89.50;;;;;;4766638;29;20077;-79
2021/01/15 01:53:20;;;;;;;10.03;7.40;;;1.30;89.50;;;;;;4782649;29;20056;-80
2021/01/15 01:55:48;;;;;;;12.33;7.63;;;1.40;89.60;;;;;;4774848;29;20503;-79
2021/01/15 01:58:16;;;;;;;12.73;8.67;;;1.40;89.60;;;;;;4795438;29;20042;-78
2021/01/15 02:00:46;;;;;;;14.67;7.63;;;1.40;89.70;;;;;;4778920;29;20077;-81
2021/01/15 02:03:16;;;;;;;12.90;8.27;;;1.30;89.70;;;;;;4802320;29;20039;-82
2021/01/15 02:05:43;;;;;;;12.67;8.67;;;1.40;89.60;;;;;;4770761;29;20940;-82
2021/01/15 02:08:10;;;;;;;12.43;8.53;;;1.40;89.70;;;;;;4800551;29;20525;-82
2021/01/15 02:10:52;;;;;;;12.27;8.77;;;1.30;89.50;;;;;;4768778;29;20053;-81
2021/01/15 02:14:00;;;;;;;11.30;7.90;;;1.40;89.50;;;;;;4798518;29;20047;-82
2021/01/15 02:16:29;;;;;;;12.17;7.70;;;1.40;89.90;;;;;;4764680;29;20043;-82
2021/01/15 02:19:41;;;;;;;11.20;7.33;;;1.40;89.80;;;;;;4800666;29;20054;-81
2021/01/15 02:22:35;;;;;;;12.33;7.83;;;1.40;90.00;;;;;;4775937;29;20054;-82
2021/01/15 02:25:41;;;;;;;10.73;7.77;;;1.40;90.00;;;;;;4790736;29;20059;-82
2021/01/15 02:28:10;;;;;;;11.17;7.87;;;1.40;90.00;;;;;;4785684;29;20061;-82
2021/01/15 02:30:40;;;;;;;10.53;7.67;;;1.40;90.10;;;;;;4799160;29;20061;-82
2021/01/15 02:33:33;;;;;;;12.63;7.43;;;1.40;90.20;;;;;;4786744;29;20054;-82
2021/01/15 02:36:03;;;;;;;;;;;1.40;90.20;;;;;;4785950;29;20793;-81
2021/01/15 02:38:52;;;;;;;12.60;7.77;;;1.40;90.10;;;;;;4785281;29;19917;-81
2021/01/15 02:41:28;;;;;;;13.93;8.43;;;1.40;90.20;;;;;;4800208;29;20054;-82
2021/01/15 02:44:02;;;;;;;10.13;7.47;;;1.40;90.20;;;;;;4759737;29;20047;-82
2021/01/15 02:46:53;;;;;;;9.80;7.67;;;1.40;90.30;;;;;;4769805;29;20042;-82
2021/01/15 02:49:20;;;;;;;12.33;8.77;;;1.40;90.40;;;;;;4778844;30;20062;-81
2021/01/15 02:51:47;;;;;;;13.97;9.37;;;1.40;90.30;;;;;;4784212;29;20055;-81
2021/01/15 02:54:13;;;;;;;15.10;9.40;;;1.40;90.30;;;;;;4799756;29;20061;-81
2021/01/15 02:56:40;;;;;;;12.27;7.97;;;1.40;90.30;;;;;;4768676;29;20043;-80
2021/01/15 02:59:07;;;;;;;13.23;7.90;;;1.40;90.40;;;;;;4799218;29;20051;-81
2021/01/15 03:01:52;;;;;;;16.00;9.73;;;1.40;90.50;;;;;;4770147;29;20042;-81
2021/01/15 03:04:28;;;;;;;11.40;7.70;;;1.40;90.50;;;;;;4769584;29;20042;-82
2021/01/15 03:06:58;;;;;;;13.87;8.27;;;1.40;90.90;;;;;;4796865;29;20042;-82
2021/01/15 03:09:27;;;;;;;14.03;8.70;;;1.40;90.60;;;;;;4803963;29;20054;-82
2021/01/15 03:11:55;;;;;;;12.57;8.20;;;1.40;90.70;;;;;;4784228;29;20047;-82
2021/01/15 03:14:23;;;;;;;15.53;9.77;;;1.40;90.80;;;;;;4800191;29;20146;-82
2021/01/15 03:16:50;;;;;;;16.13;10.10;;;1.40;90.80;;;;;;4775997;29;20046;-82
2021/01/15 03:19:18;;;;;;;12.20;9.13;;;1.40;90.90;;;;;;4762654;29;20054;-83
2021/01/15 03:21:50;;;;;;;14.30;10.30;;;1.40;91.20;;;;;;4799262;29;20059;-83
2021/01/15 03:24:17;;;;;;;14.27;9.93;;;1.40;91.10;;;;;;4765052;29;20064;-83
2021/01/15 03:26:45;;;;;;;15.07;9.77;;;1.30;91.10;;;;;;4784592;29;20042;-83
2021/01/15 03:29:13;;;;;;;14.03;9.07;;;1.40;91.30;;;;;;4783842;29;20039;-81
2021/01/15 03:31:41;;;;;;;14.30;9.33;;;1.40;91.30;;;;;;4799676;29;20071;-81
2021/01/15 03:34:08;;;;;;;12.00;8.90;;;1.40;91.40;;;;;;4791438;29;20498;-80
2021/01/15 03:36:35;;;;;;;12.73;9.33;;;1.40;91.40;;;;;;4799828;29;20066;-80
2021/01/15 03:39:03;;;;;;;16.23;11.47;;;1.40;91.50;;;;;;4776748;29;20050;-81
2021/01/15 03:41:29;;;;;;;15.43;9.33;;;1.40;91.60;;;;;;4799095;29;20110;-82
2021/01/15 03:43:56;;;;;;;15.90;10.40;;;1.40;91.60;;;;;;4768310;29;20062;-83
2021/01/15 03:46:22;;;;;;;15.47;10.63;;;1.40;91.70;;;;;;4783826;29;20055;-81
2021/01/15 03:48:49;;;;;;;20.07;10.93;;;1.40;91.80;;;;;;4799157;29;20114;-80
2021/01/15 03:51:15;;;;;;;13.63;9.80;;;1.40;91.80;;;;;;4761237;29;20411;-81
2021/01/15 03:53:47;;;;;;;16.43;10.67;;;1.40;91.90;;;;;;4766721;29;20395;-81
2021/01/15 03:56:17;;;;;;;13.10;8.77;;;1.40;91.90;;;;;;4783592;29;20039;-83
2021/01/15 03:58:44;;;;;;;13.20;9.33;;;1.40;92.00;;;;;;4783377;29;20054;-82
2021/01/15 04:01:11;;;;;;;14.37;9.50;;;1.50;92.00;;;;;;4768192;29;20058;-83
2021/01/15 04:03:37;;;;;;;14.40;10.13;;;1.50;92.00;;;;;;4783921;29;20047;-83
2021/01/15 04:06:04;;;;;;;15.53;10.73;;;1.50;92.10;;;;;;4777420;29;20051;-83
2021/01/15 04:08:31;;;;;;;18.50;11.57;;;1.50;92.10;;;;;;4776731;29;20412;-83
2021/01/15 04:10:57;;;;;;;16.80;11.27;;;1.40;92.10;;;;;;4783669;29;20043;-84
2021/01/15 04:13:24;;;;;;;16.97;10.97;;;1.40;92.20;;;;;;4768980;29;20045;-83
2021/01/15 04:15:50;;;;;;;17.77;10.80;;;1.40;92.20;;;;;;4783217;29;20403;-80
2021/01/15 04:18:17;;;;;;;17.10;10.63;;;1.40;92.50;;;;;;4790400;29;20058;-87
2021/01/15 04:20:43;;;;;;;20.30;10.93;;;1.50;92.30;;;;;;4763192;29;20046;-87
2021/01/15 04:23:10;;;;;;;16.80;11.00;;;1.40;92.20;;;;;;4768233;29;20050;-83
2021/01/15 04:25:37;;;;;;;18.10;11.77;;;1.50;92.30;;;;;;4759569;29;20051;-85
2021/01/15 04:28:06;;;;;;;20.30;12.70;;;1.40;92.30;;;;;;4764225;29;20053;-90
2021/01/15 04:30:32;;;;;;;21.40;14.47;;;1.50;92.30;;;;;;4783018;29;20051;-82
2021/01/15 04:32:59;;;;;;;38.00;22.70;;;1.40;92.30;;;;;;4775711;29;20046;-82
2021/01/15 04:35:25;;;;;;;29.23;16.87;;;1.40;92.30;;;;;;4783599;29;20047;-85
2021/01/15 04:37:52;;;;;;;22.87;13.47;;;1.40;92.40;;;;;;4775948;30;20063;-83
2021/01/15 04:40:18;;;;;;;19.03;12.53;;;1.40;92.40;;;;;;4796790;29;20047;-81
2021/01/15 04:42:46;;;;;;;17.87;11.33;;;1.40;92.40;;;;;;4778084;29;20063;-81
2021/01/15 04:45:15;;;;;;;21.07;11.90;;;1.40;92.40;;;;;;4798293;29;20067;-81
2021/01/15 04:47:47;;;;;;;18.53;11.87;;;1.40;92.40;;;;;;4783207;29;20046;-81
2021/01/15 04:50:15;;;;;;;17.97;10.70;;;1.40;92.40;;;;;;4762149;29;20043;-81
2021/01/15 04:52:53;;;;;;;15.30;10.70;;;1.40;92.40;;;;;;4798747;29;20047;-81
2021/01/15 04:55:24;;;;;;;20.60;12.37;;;1.40;92.50;;;;;;4798599;29;20525;-81
2021/01/15 04:57:52;;;;;;;18.53;12.33;;;1.40;92.50;;;;;;4782108;29;20407;-79
2021/01/15 05:00:22;;;;;;;19.80;12.90;;;1.40;92.50;;;;;;4781394;29;20426;-79
2021/01/15 05:02:49;;;;;;;21.33;12.93;;;1.40;92.50;;;;;;4797405;29;20042;-79
2021/01/15 05:05:27;;;;;;;18.83;12.23;;;1.40;92.60;;;;;;4797249;29;20054;-79
2021/01/15 05:08:13;;;;;;;19.53;12.17;;;1.40;92.60;;;;;;4782225;29;20039;-80
2021/01/15 05:10:42;;;;;;;27.47;17.73;;;1.40;92.60;;;;;;4766703;29;20058;-81
2021/01/15 05:13:11;;;;;;;57.83;35.47;;;1.40;92.60;;;;;;4783374;29;20044;-80
2021/01/15 05:15:41;;;;;;;50.50;29.07;;;1.40;92.60;;;;;;4782519;29;20047;-82
2021/01/15 05:18:08;;;;;;;33.50;19.03;;;1.40;92.70;;;;;;4783242;29;20043;-81
2021/01/15 05:20:35;;;;;;;28.80;16.63;;;1.40;92.70;;;;;;4782718;29;20113;-81
2021/01/15 05:23:07;;;;;;;25.93;15.17;;;1.40;92.70;;;;;;4783391;29;20047;-81
2021/01/15 05:25:47;;;;;;;24.37;14.27;;;1.40;92.80;;;;;;4782093;29;20578;-81
2021/01/15 05:28:21;;;;;;;18.93;12.77;;;1.40;92.80;;;;;;4776996;29;20047;-83
2021/01/15 05:30:58;;;;;;;18.00;12.63;;;1.40;92.90;;;;;;4773307;29;20039;-83
2021/01/15 05:33:26;;;;;;;21.57;12.63;;;1.40;92.90;;;;;;4797793;29;20065;-83
2021/01/15 05:35:55;;;;;;;22.63;12.97;;;1.40;92.90;;;;;;4770149;29;20049;-83
2021/01/15 05:38:22;;;;;;;21.63;13.70;;;1.40;92.90;;;;;;4780626;29;20043;-83
2021/01/15 05:40:55;;;;;;;25.67;14.20;;;1.40;93.00;;;;;;4778636;29;20054;-82
2021/01/15 05:43:32;;;;;;;22.63;14.43;;;1.40;93.00;;;;;;4786946;29;20038;-82
2021/01/15 05:46:14;;;;;;;19.60;12.83;;;1.40;93.00;;;;;;4784902;29;20050;-82
2021/01/15 05:48:45;;;;;;;20.17;12.33;;;1.40;93.00;;;;;;4766601;29;20057;-82
2021/01/15 05:51:23;;;;;;;19.70;13.33;;;1.40;93.00;;;;;;4786201;29;20513;-82
2021/01/15 05:53:49;;;;;;;21.13;13.37;;;1.40;93.10;;;;;;4786563;29;20042;-82
2021/01/15 05:56:20;;;;;;;20.53;14.13;;;1.40;93.10;;;;;;4801090;29;20517;-82
2021/01/15 05:59:10;;;;;;;22.80;15.10;;;1.40;93.10;;;;;;4786106;29;20038;-82
2021/01/15 06:01:56;;;;;;;20.43;12.57;;;1.40;93.10;;;;;;4802090;29;20047;-83
2021/01/15 06:04:33;;;;;;;24.40;15.37;;;1.40;93.20;;;;;;4787735;29;20043;-82
2021/01/15 06:07:09;;;;;;;23.60;13.70;;;1.40;93.20;;;;;;4801738;29;20047;-83
2021/01/15 06:09:43;;;;;;;26.70;16.20;;;1.40;93.20;;;;;;4804065;29;20058;-83
2021/01/15 06:12:19;;;;;;;25.67;15.93;;;1.40;93.40;;;;;;4803118;29;20424;-82
2021/01/15 06:14:56;;;;;;;23.73;15.17;;;1.40;93.30;;;;;;4788493;29;20070;-82
2021/01/15 06:17:22;;;;;;;26.03;16.80;;;1.40;93.30;;;;;;4785730;29;20038;-81
2021/01/15 06:19:50;;;;;;;24.77;15.40;;;1.40;93.30;;;;;;4789894;29;20050;-81
2021/01/15 06:22:47;;;;;;;25.87;16.53;;;1.40;93.40;;;;;;4787963;29;20047;-81
2021/01/15 06:25:31;;;;;;;24.60;15.60;;;1.40;93.40;;;;;;4788785;29;20062;-81
2021/01/15 06:28:03;;;;;;;22.97;14.90;;;1.40;93.40;;;;;;4801042;29;20054;-80
2021/01/15 06:30:32;;;;;;;20.83;13.25;;;1.50;93.50;;;;;;4763288;29;20051;-80
2021/01/15 06:33:13;;;;;;;23.20;13.83;;;1.50;93.50;;;;;;4785467;29;20058;-81
2021/01/15 06:35:42;;;;;;;21.17;13.30;;;1.50;93.50;;;;;;4800936;29;20079;-80
2021/01/15 06:38:09;;;;;;;21.00;13.73;;;1.50;93.50;;;;;;4785067;29;20039;-81
2021/01/15 06:40:39;;;;;;;22.70;14.47;;;1.50;93.50;;;;;;4784491;29;20046;-81
2021/01/15 06:43:06;;;;;;;25.93;16.97;;;1.50;93.50;;;;;;4800179;29;20054;-81
2021/01/15 06:45:37;;;;;;;26.47;16.50;;;1.50;93.50;;;;;;4783768;29;20051;-81
2021/01/15 06:48:13;;;;;;;23.38;14.60;;;1.50;93.50;;;;;;4800414;29;20046;-81
2021/01/15 06:50:41;;;;;;;25.00;16.40;;;1.60;93.60;;;;;;4786740;29;20045;-82
2021/01/15 06:53:15;;;;;;;25.13;17.07;;;1.50;93.60;;;;;;4764197;29;20830;-81
2021/01/15 06:55:49;;;;;;;24.30;15.17;;;1.50;93.60;;;;;;4785916;29;20042;-82
2021/01/15 06:58:20;;;;;;;34.53;19.63;;;1.50;93.60;;;;;;4785082;29;20375;-81
2021/01/15 07:01:22;;;;;;;36.00;23.85;;;1.50;93.60;;;;;;4771928;29;20500;-80
2021/01/15 07:04:28;;;;;;;33.87;20.33;;;1.50;93.60;;;;;;4777953;29;20039;-81
2021/01/15 07:07:01;;;;;;;32.47;19.07;;;1.50;93.70;;;;;;4798649;29;20067;-81
2021/01/15 07:09:27;;;;;;;;;;;1.50;93.70;;;;;;4789779;29;20051;-82
2021/01/15 07:12:01;;;;;;;32.87;19.37;;;1.60;93.70;;;;;;4784321;29;19925;-81
2021/01/15 07:14:28;;;;;;;35.70;20.60;;;1.50;93.70;;;;;;4761939;29;20091;-82
2021/01/15 07:16:56;;;;;;;39.17;22.57;;;1.50;93.70;;;;;;4782709;29;20499;-83
2021/01/15 07:19:56;;;;;;;31.20;18.83;;;1.60;93.70;;;;;;4762475;29;20042;-83
2021/01/15 07:22:31;;;;;;;33.63;19.73;;;1.60;93.80;;;;;;4783619;29;20038;-82
2021/01/15 07:24:59;;;;;;;32.03;18.73;;;1.60;93.80;;;;;;4784880;29;20043;-82
2021/01/15 07:27:26;;;;;;;32.13;18.87;;;1.50;93.80;;;;;;4799166;29;20503;-82
2021/01/15 07:29:52;;;;;;;32.90;20.50;;;1.60;93.80;;;;;;4766735;29;20380;-83
2021/01/15 07:32:25;;;;;;;36.23;20.27;;;1.60;93.80;;;;;;4768308;29;20057;-82
2021/01/15 07:35:00;;;;;;;30.83;19.03;;;1.50;93.80;;;;;;4797127;29;20066;-82
2021/01/15 07:37:31;;;;;;;24.37;14.10;;;1.50;93.90;;;;;;4783073;29;20388;-82
2021/01/15 07:40:16;;;;;;;26.27;17.10;;;1.60;93.90;;;;;;4796828;29;20042;-82
2021/01/15 07:42:59;;;;;;;31.33;18.90;;;1.60;93.90;;;;;;4783727;29;20435;-82
2021/01/15 07:45:25;;;;;;;30.03;16.57;;;1.60;93.90;;;;;;4784825;29;20050;-81
2021/01/15 07:48:07;;;;;;;24.83;15.67;;;1.60;93.90;;;;;;4782357;29;20050;-84
2021/01/15 07:50:44;;;;;;;31.30;17.57;;;1.60;93.90;;;;;;4782810;29;20065;-83
2021/01/15 07:53:39;;;;;;;30.20;17.47;;;1.60;93.90;;;;;;4798528;29;20043;-83
2021/01/15 07:56:08;;;;;;;25.27;15.63;;;1.60;93.90;;;;;;4782857;29;20034;-82
2021/01/15 07:58:37;;;;;;;28.47;17.43;;;1.60;93.90;;;;;;4782448;29;20034;-82
2021/01/15 08:01:17;;;;;;;25.73;16.83;;;1.60;94.00;;;;;;4798619;29;20415;-82
2021/01/15 08:03:46;;;;;;;22.50;14.97;;;1.60;94.00;;;;;;4798447;29;20065;-81
2021/01/15 08:06:15;;;;;;;25.13;16.63;;;1.70;94.00;;;;;;4798149;29;20078;-81
2021/01/15 08:09:03;;;;;;;20.40;12.37;;;1.70;94.00;;;;;;4784003;29;20043;-81
2021/01/15 08:11:35;;;;;;;24.87;15.40;;;1.70;94.00;;;;;;4780792;29;20047;-79
2021/01/15 08:14:15;;;;;;;22.35;14.30;;;1.70;94.00;;;;;;4783229;29;20043;-80
2021/01/15 08:16:44;;;;;;;25.57;16.90;;;1.70;94.00;;;;;;4764073;29;20050;-80
2021/01/15 08:19:12;;;;;;;25.63;15.93;;;1.70;94.00;;;;;;4761253;29;20054;-80
2021/01/15 08:21:46;;;;;;;18.43;12.00;;;1.80;94.00;;;;;;4796975;29;20070;-80
2021/01/15 08:24:13;;;;;;;22.30;14.67;;;1.80;94.00;;;;;;4797621;29;20050;-80
2021/01/15 08:26:52;;;;;;;19.20;11.57;;;1.80;94.10;;;;;;4787289;29;20055;-80
2021/01/15 08:29:24;;;;;;;22.20;13.67;;;1.80;94.10;;;;;;4797486;29;20043;-80
2021/01/15 08:31:56;;;;;;;28.23;15.13;;;1.90;94.10;;;;;;4783875;29;20051;-80
2021/01/15 08:34:30;;;;;;;22.45;14.35;;;1.90;94.00;;;;;;4769107;29;20035;-80
2021/01/15 08:37:01;;;;;;;18.57;12.90;;;1.90;94.00;;;;;;4782594;29;20050;-80
2021/01/15 08:39:27;;;;;;;22.57;14.33;;;1.90;94.00;;;;;;4797175;29;20050;-80
2021/01/15 08:41:56;;;;;;;23.07;14.23;;;2.00;94.00;;;;;;4782556;29;20053;-81
2021/01/15 08:44:23;;;;;;;24.03;14.90;;;2.00;93.90;;;;;;4783336;29;20142;-81
2021/01/15 08:46:51;;;;;;;26.60;15.47;;;2.00;93.90;;;;;;4767948;29;20443;-81
2021/01/15 08:49:17;;;;;;;22.03;13.73;;;2.00;94.00;;;;;;4798085;29;20067;-79
2021/01/15 08:51:50;;;;;;;22.30;14.07;;;2.00;93.90;;;;;;4763766;29;20058;-81
2021/01/15 08:54:20;;;;;;;19.83;13.40;;;2.00;93.90;;;;;;4777731;29;20937;-81
2021/01/15 08:56:48;;;;;;;25.13;14.77;;;2.00;94.00;;;;;;4783738;29;20383;-81
2021/01/15 08:59:28;;;;;;;20.80;13.17;;;2.00;93.90;;;;;;4769583;29;20042;-81
2021/01/15 09:01:58;;;;;;;19.83;12.97;;;2.00;93.90;;;;;;4780429;29;20054;-80
2021/01/15 09:04:35;;;;;;;22.77;14.23;;;2.00;93.90;;;;;;4768235;29;20394;-80
2021/01/15 09:07:06;;;;;;;20.57;12.87;;;2.00;93.90;;;;;;4795760;29;20061;-80
2021/01/15 09:09:35;;;;;;;25.30;14.37;;;2.00;93.80;;;;;;4784992;29;20050;-86
2021/01/15 09:12:09;;;;;;;22.80;14.17;;;2.00;93.80;;;;;;4786997;29;20858;-84
2021/01/15 09:14:36;;;;;;;21.83;13.57;;;2.00;93.90;;;;;;4771040;29;20127;-83
2021/01/15 09:17:04;;;;;;;22.03;13.63;;;1.90;93.90;;;;;;4786549;29;20043;-84
2021/01/15 09:19:31;;;;;;;21.87;13.47;;;2.00;93.90;;;;;;4801519;29;20061;-83
2021/01/15 09:22:04;;;;;;;23.13;15.07;;;2.00;93.90;;;;;;4755341;29;20051;-84
2021/01/15 09:24:32;;;;;;;20.77;13.67;;;2.00;93.90;;;;;;4801580;29;20039;-83
2021/01/15 09:27:07;;;;;;;25.57;14.70;;;2.00;93.90;;;;;;4757756;29;20059;-83
2021/01/15 09:29:35;;;;;;;22.07;14.13;;;1.90;93.80;;;;;;4799624;29;20055;-81
2021/01/15 09:32:03;;;;;;;20.20;13.13;;;2.00;93.80;;;;;;4771201;29;20070;-81
2021/01/15 09:34:29;;;;;;;25.83;15.10;;;2.00;93.80;;;;;;4786517;29;20043;-83
2021/01/15 09:36:56;;;;;;;24.10;14.83;;;2.00;93.80;;;;;;4801386;29;20065;-85
2021/01/15 09:39:26;;;;;;;24.20;15.10;;;2.00;93.80;;;;;;4787811;29;20027;-81
2021/01/15 09:41:59;;;;;;;30.43;18.83;;;2.00;93.70;;;;;;4785595;29;20046;-81
2021/01/15 09:44:27;;;;;;;25.47;15.47;;;2.00;93.70;;;;;;4774410;30;20511;-83
2021/01/15 09:47:00;;;;;;;20.00;12.57;;;2.00;93.60;;;;;;4785495;29;20039;-82
2021/01/15 09:49:27;;;;;;;21.07;13.20;;;2.00;93.60;;;;;;4786109;29;20047;-83
2021/01/15 09:52:15;;;;;;;22.03;13.73;;;2.00;93.60;;;;;;4800761;29;21010;-83
2021/01/15 09:54:42;;;;;;;23.40;11.90;;;2.10;93.70;;;;;;4771284;29;20042;-83
2021/01/15 09:57:08;;;;;;;18.30;10.13;;;2.10;93.70;;;;;;4785192;29;20177;-82
2021/01/15 09:59:35;;;;;;;16.93;11.93;;;2.10;93.70;;;;;;4761412;29;20043;-83
2021/01/15 10:02:02;;;;;;;18.77;11.17;;;2.20;93.70;;;;;;4771121;29;20058;-83
2021/01/15 10:04:29;;;;;;;20.43;12.70;;;2.20;93.60;;;;;;4771461;29;20050;-84
2021/01/15 10:06:55;;;;;;;20.93;12.63;;;2.20;93.60;;;;;;4778817;29;20051;-84
2021/01/15 10:09:22;;;;;;;14.93;9.77;;;2.20;93.60;;;;;;4768781;29;20051;-83
2021/01/15 10:11:49;;;;;;;19.53;12.57;;;2.30;93.60;;;;;;4771420;29;20051;-83
2021/01/15 10:14:20;;;;;;;18.87;12.73;;;2.30;93.60;;;;;;4785814;29;20055;-83
2021/01/15 10:16:49;;;;;;;19.20;11.57;;;2.30;93.50;;;;;;4762410;29;20158;-83
2021/01/15 10:19:17;;;;;;;20.37;12.73;;;2.30;93.40;;;;;;4800367;29;20491;-80
2021/01/15 10:21:45;;;;;;;16.27;12.13;;;2.30;93.30;;;;;;4784272;29;20043;-83
2021/01/15 10:24:13;;;;;;;23.33;12.80;;;2.40;93.30;;;;;;4785715;29;20043;-82
2021/01/15 10:26:41;;;;;;;15.60;11.57;;;2.40;93.30;;;;;;4784993;29;20046;-82
2021/01/15 10:29:12;;;;;;;18.27;11.63;;;2.40;93.30;;;;;;4785682;29;20054;-85
2021/01/15 10:31:54;;;;;;;15.97;11.67;;;2.40;93.30;;;;;;4761753;29;20063;-84
2021/01/15 10:34:24;;;;;;;20.27;11.63;;;2.40;93.20;;;;;;4786187;29;20038;-85
2021/01/15 10:36:55;;;;;;;18.87;11.70;;;2.40;93.20;;;;;;4771446;29;20042;-86
2021/01/15 10:39:22;;;;;;;16.27;11.60;;;2.40;93.20;;;;;;4776049;29;20043;-85
2021/01/15 10:41:51;;;;;;;21.10;11.70;;;2.40;93.00;;;;;;4775824;29;20533;-84
2021/01/15 10:44:20;;;;;;;18.27;11.30;;;2.40;93.10;;;;;;4801775;29;20414;-84
2021/01/15 10:46:52;;;;;;;15.67;10.97;;;2.40;93.10;;;;;;4774020;29;20057;-82
2021/01/15 10:49:20;;;;;;;15.23;10.60;;;2.40;93.10;;;;;;4785532;29;20507;-84
2021/01/15 10:51:55;;;;;;;15.37;10.17;;;2.40;93.10;;;;;;4800995;29;20046;-83
2021/01/15 10:54:25;;;;;;;18.17;10.70;;;2.40;93.10;;;;;;4800646;29;20051;-84
2021/01/15 10:56:53;;;;;;;20.67;11.93;;;2.40;93.00;;;;;;4812743;29;20402;-83
2021/01/15 10:59:20;;;;;;;18.80;11.70;;;2.40;92.90;;;;;;4799608;29;20066;-83
2021/01/15 11:01:49;;;;;;;14.43;10.53;;;2.40;92.80;;;;;;4784223;29;20058;-82
2021/01/15 11:04:17;;;;;;;19.43;12.53;;;2.40;92.80;;;;;;4801108;29;20050;-83
2021/01/15 11:06:46;;;;;;;16.63;11.47;;;2.40;92.70;;;;;;4769324;29;20043;-83
2021/01/15 11:09:19;;;;;;;18.70;12.63;;;2.40;92.60;;;;;;4799891;29;20055;-83
2021/01/15 11:11:49;;;;;;;15.40;10.13;;;2.40;92.60;;;;;;4798882;29;20061;-82
2021/01/15 11:14:20;;;;;;;17.17;11.63;;;2.40;92.70;;;;;;4799765;29;20051;-85
2021/01/15 11:16:47;;;;;;;16.17;11.33;;;2.40;92.70;;;;;;4778721;29;20058;-83
2021/01/15 11:19:14;;;;;;;17.10;11.17;;;2.40;92.60;;;;;;4784557;29;20043;-82
2021/01/15 11:21:42;;;;;;;16.40;11.10;;;2.50;92.50;;;;;;4772135;29;20051;-82
2021/01/15 11:24:10;;;;;;;18.77;11.87;;;2.50;92.50;;;;;;4799566;29;20059;-82
2021/01/15 11:26:37;;;;;;;17.00;11.97;;;2.50;92.30;;;;;;4762406;29;20047;-82
2021/01/15 11:29:06;;;;;;;15.87;11.40;;;2.50;92.10;;;;;;4800026;29;20066;-82
2021/01/15 11:31:34;;;;;;;16.43;11.17;;;2.50;92.10;;;;;;4799892;29;20095;-80
2021/01/15 11:34:01;;;;;;;16.60;10.53;;;2.50;92.10;;;;;;4783389;29;20396;-81
2021/01/15 11:36:31;;;;;;;16.53;12.17;;;2.50;92.10;;;;;;4798202;29;20376;-83
2021/01/15 11:39:08;;;;;;;15.25;10.98;;;2.50;92.00;;;;;;4799245;29;20047;-85
2021/01/15 11:41:42;;;;;;;19.30;12.33;;;2.50;91.90;;;;;;4784867;29;20053;-88
2021/01/15 11:44:14;;;;;;;16.97;11.27;;;2.50;91.60;;;;;;4784896;29;20042;-87
2021/01/15 11:46:41;;;;;;;19.67;12.77;;;2.50;91.40;;;;;;4800382;29;20038;-87
2021/01/15 11:49:07;;;;;;;17.00;11.93;;;2.50;91.40;;;;;;4784734;29;20045;-87
2021/01/15 11:51:40;;;;;;;18.23;12.00;;;2.50;91.50;;;;;;4777636;29;20050;-88
2021/01/15 11:54:12;;;;;;;15.20;9.63;;;2.50;91.50;;;;;;4806284;29;20073;-85
2021/01/15 11:56:48;;;;;;;15.20;9.53;;;2.50;91.60;;;;;;4771090;29;20031;-81
2021/01/15 11:59:22;;;;;;;15.07;11.67;;;2.50;91.70;;;;;;4797052;29;20047;-85
2021/01/15 12:01:56;;;;;;;14.37;10.40;;;2.50;91.70;;;;;;4797588;29;20075;-86
2021/01/15 12:04:23;;;;;;;15.20;10.53;;;2.50;91.70;;;;;;4783931;29;20042;-86
2021/01/15 12:06:59;;;;;;;15.77;11.03;;;2.50;91.70;;;;;;4764445;29;20113;-85
2021/01/15 12:09:32;;;;;;;16.70;12.30;;;2.60;91.80;;;;;;4784238;29;20054;-85
2021/01/15 12:12:00;;;;;;;15.38;11.05;;;2.60;91.80;;;;;;4798756;29;20153;-85
2021/01/15 12:14:29;;;;;;;16.53;10.57;;;2.60;91.80;;;;;;4770872;29;20042;-86
2021/01/15 12:16:59;;;;;;;19.23;11.70;;;2.60;91.80;;;;;;4784541;29;20057;-86
2021/01/15 12:19:29;;;;;;;15.43;10.90;;;2.60;91.80;;;;;;4784442;29;20051;-85
2021/01/15 12:21:56;;;;;;;18.60;11.87;;;2.60;91.80;;;;;;4761895;29;20062;-85
2021/01/15 12:24:29;;;;;;;16.53;11.73;;;2.70;91.90;;;;;;4796784;29;20066;-87
2021/01/15 12:27:09;;;;;;;15.70;11.50;;;2.70;91.90;;;;;;4783585;29;20046;-86
2021/01/15 12:29:41;;;;;;;17.27;11.60;;;2.70;91.90;;;;;;4799024;29;20049;-86
2021/01/15 12:32:11;;;;;;;15.93;11.45;;;2.70;91.90;;;;;;4759900;29;20761;-87
2021/01/15 12:34:38;;;;;;;18.23;11.33;;;2.80;91.90;;;;;;4783162;29;20043;-86
2021/01/15 12:37:14;;;;;;;16.53;10.87;;;2.80;92.00;;;;;;4760330;29;20047;-85
2021/01/15 12:39:50;;;;;;;18.57;12.33;;;2.80;91.90;;;;;;4797627;29;20058;-85
2021/01/15 12:42:20;;;;;;;18.37;12.73;;;2.80;91.90;;;;;;4797573;29;20057;-85
2021/01/15 12:44:51;;;;;;;20.53;13.97;;;2.80;92.00;;;;;;4782815;29;20042;-86
2021/01/15 12:47:18;;;;;;;20.47;14.17;;;2.80;92.00;;;;;;4783588;29;20046;-85
2021/01/15 12:49:45;;;;;;;19.70;12.43;;;2.80;91.80;;;;;;4783736;29;20043;-84
2021/01/15 12:52:19;;;;;;;21.07;14.17;;;2.80;91.80;;;;;;4782178;29;20051;-85
2021/01/15 12:54:46;;;;;;;21.13;14.30;;;2.80;91.70;;;;;;4783544;29;20047;-83
2021/01/15 12:57:28;;;;;;;21.07;14.37;;;2.80;91.80;;;;;;4785493;29;20039;-82
2021/01/15 13:00:29;;;;;;;20.97;13.80;;;2.70;91.50;;;;;;4783895;29;20038;-83
2021/01/15 13:02:59;;;;;;;20.03;12.87;;;2.70;91.60;;;;;;4784049;29;20063;-85